sensor_id;sensor_type;location;lat;lon;timestamp;P1;durP1;ratioP1;P2;durP2;ratioP2
27025;SDS011;14565;48.626;8.978;2023-08-01T00:02:16;7.28;;;3.53;;
27025;SDS011;14565;48.626;8.978;2023-08-01T00:04:42;6.88;;;3.38;;
27025;SDS011;14565;48.626;8.978;2023-08-01T00:07:07;5.38;;;3.75;;
27025;SDS011;14565;48.626;8.978;2023-08-01T00:09:33;6.25;;;2.90;;
27025;SDS011;14565;48.626;8.978;2023-08-01T00:11:59;5.85;;;3.20;;
27025;SDS011;14565;48.626;8.978;2023-08-01T00:14:24;5.75;;;3.15;;
27025;SDS011;14565;48.626;8.978;2023-08-01T00:16:50;6.93;;;3.15;;
27025;SDS011;14565;48.626;8.978;2023-08-01T00:19:16;5.53;;;3.47;;
27025;SDS011;14565;48.626;8.978;2023-08-01T00:21:43;6.28;;;3.10;;
27025;SDS011;14565;48.626;8.978;2023-08-01T00:24:08;7.75;;;3.33;;
27025;SDS011;14565;48.626;8.978;2023-08-01T00:26:34;7.47;;;3.60;;
27025;SDS011;14565;48.626;8.978;2023-08-01T00:29:00;5.28;;;2.92;;
27025;SDS011;14565;48.626;8.978;2023-08-01T00:31:26;4.88;;;3.03;;
27025;SDS011;14565;48.626;8.978;2023-08-01T00:33:51;7.63;;;3.30;;
27025;SDS011;14565;48.626;8.978;2023-08-01T00:36:17;5.40;;;3.15;;
27025;SDS011;14565;48.626;8.978;2023-08-01T00:38:42;7.40;;;3.22;;
27025;SDS011;14565;48.626;8.978;2023-08-01T00:41:09;5.85;;;3.22;;
27025;SDS011;14565;48.626;8.978;2023-08-01T00:43:35;6.75;;;3.28;;
27025;SDS011;14565;48.626;8.978;2023-08-01T00:46:01;5.35;;;3.35;;
27025;SDS011;14565;48.626;8.978;2023-08-01T00:48:28;6.63;;;3.20;;
27025;SDS011;14565;48.626;8.978;2023-08-01T00:50:55;6.28;;;3.25;;
27025;SDS011;14565;48.626;8.978;2023-08-01T00:53:22;4.68;;;3.10;;
27025;SDS011;14565;48.626;8.978;2023-08-01T00:55:48;5.90;;;3.22;;
27025;SDS011;14565;48.626;8.978;2023-08-01T00:58:14;5.90;;;3.03;;
27025;SDS011;14565;48.626;8.978;2023-08-01T01:00:40;7.85;;;3.10;;
27025;SDS011;14565;48.626;8.978;2023-08-01T01:03:06;8.25;;;3.33;;
27025;SDS011;14565;48.626;8.978;2023-08-01T01:05:34;6.18;;;3.38;;
27025;SDS011;14565;48.626;8.978;2023-08-01T01:08:03;6.35;;;3.30;;
27025;SDS011;14565;48.626;8.978;2023-08-01T01:10:29;5.15;;;2.90;;
27025;SDS011;14565;48.626;8.978;2023-08-01T01:12:55;7.72;;;3.65;;
27025;SDS011;14565;48.626;8.978;2023-08-01T01:15:21;7.70;;;3.58;;
27025;SDS011;14565;48.626;8.978;2023-08-01T01:17:47;6.43;;;3.67;;
27025;SDS011;14565;48.626;8.978;2023-08-01T01:20:12;16.50;;;3.85;;
27025;SDS011;14565;48.626;8.978;2023-08-01T01:22:38;9.43;;;4.43;;
27025;SDS011;14565;48.626;8.978;2023-08-01T01:25:05;8.15;;;4.03;;
27025;SDS011;14565;48.626;8.978;2023-08-01T01:27:32;8.10;;;4.50;;
27025;SDS011;14565;48.626;8.978;2023-08-01T01:30:00;10.07;;;4.82;;
27025;SDS011;14565;48.626;8.978;2023-08-01T01:32:26;8.55;;;4.68;;
27025;SDS011;14565;48.626;8.978;2023-08-01T01:34:53;9.93;;;4.80;;
27025;SDS011;14565;48.626;8.978;2023-08-01T01:37:19;8.50;;;4.22;;
27025;SDS011;14565;48.626;8.978;2023-08-01T01:39:44;6.55;;;4.38;;
27025;SDS011;14565;48.626;8.978;2023-08-01T01:42:10;9.50;;;4.97;;
27025;SDS011;14565;48.626;8.978;2023-08-01T01:44:38;9.85;;;4.57;;
27025;SDS011;14565;48.626;8.978;2023-08-01T01:47:03;9.93;;;5.07;;
27025;SDS011;14565;48.626;8.978;2023-08-01T01:49:29;8.45;;;4.80;;
27025;SDS011;14565;48.626;8.978;2023-08-01T01:51:55;8.15;;;4.95;;
27025;SDS011;14565;48.626;8.978;2023-08-01T01:54:21;6.47;;;4.57;;
27025;SDS011;14565;48.626;8.978;2023-08-01T01:56:46;6.97;;;4.72;;
27025;SDS011;14565;48.626;8.978;2023-08-01T01:59:12;8.70;;;4.15;;
27025;SDS011;14565;48.626;8.978;2023-08-01T02:01:37;9.30;;;4.32;;
27025;SDS011;14565;48.626;8.978;2023-08-01T02:04:03;7.13;;;3.95;;
27025;SDS011;14565;48.626;8.978;2023-08-01T02:06:29;7.30;;;4.00;;
27025;SDS011;14565;48.626;8.978;2023-08-01T02:08:54;6.07;;;3.60;;
27025;SDS011;14565;48.626;8.978;2023-08-01T02:11:20;7.15;;;3.75;;
27025;SDS011;14565;48.626;8.978;2023-08-01T02:13:46;8.10;;;4.25;;
27025;SDS011;14565;48.626;8.978;2023-08-01T02:16:11;7.65;;;4.03;;
27025;SDS011;14565;48.626;8.978;2023-08-01T02:18:37;8.02;;;3.80;;
27025;SDS011;14565;48.626;8.978;2023-08-01T02:21:02;9.85;;;3.72;;
27025;SDS011;14565;48.626;8.978;2023-08-01T02:23:28;9.55;;;3.90;;
27025;SDS011;14565;48.626;8.978;2023-08-01T02:25:54;8.48;;;4.10;;
27025;SDS011;14565;48.626;8.978;2023-08-01T02:28:19;7.22;;;3.97;;
27025;SDS011;14565;48.626;8.978;2023-08-01T02:30:45;7.38;;;4.13;;
27025;SDS011;14565;48.626;8.978;2023-08-01T02:33:11;8.45;;;3.80;;
27025;SDS011;14565;48.626;8.978;2023-08-01T02:35:37;6.95;;;3.67;;
27025;SDS011;14565;48.626;8.978;2023-08-01T02:38:02;7.20;;;3.97;;
27025;SDS011;14565;48.626;8.978;2023-08-01T02:40:28;5.10;;;3.25;;
27025;SDS011;14565;48.626;8.978;2023-08-01T02:42:54;5.57;;;3.58;;
27025;SDS011;14565;48.626;8.978;2023-08-01T02:45:20;6.78;;;4.05;;
27025;SDS011;14565;48.626;8.978;2023-08-01T02:47:45;6.25;;;3.42;;
27025;SDS011;14565;48.626;8.978;2023-08-01T02:50:11;6.30;;;3.13;;
27025;SDS011;14565;48.626;8.978;2023-08-01T02:52:37;8.48;;;3.05;;
27025;SDS011;14565;48.626;8.978;2023-08-01T02:55:02;8.35;;;3.58;;
27025;SDS011;14565;48.626;8.978;2023-08-01T02:57:28;6.50;;;3.17;;
27025;SDS011;14565;48.626;8.978;2023-08-01T02:59:54;6.32;;;3.00;;
27025;SDS011;14565;48.626;8.978;2023-08-01T03:02:19;4.25;;;3.20;;
27025;SDS011;14565;48.626;8.978;2023-08-01T03:04:45;5.78;;;3.17;;
27025;SDS011;14565;48.626;8.978;2023-08-01T03:07:10;7.18;;;3.22;;
27025;SDS011;14565;48.626;8.978;2023-08-01T03:09:36;5.97;;;3.40;;
27025;SDS011;14565;48.626;8.978;2023-08-01T03:12:02;4.32;;;2.85;;
27025;SDS011;14565;48.626;8.978;2023-08-01T03:14:27;4.55;;;2.92;;
27025;SDS011;14565;48.626;8.978;2023-08-01T03:16:53;5.65;;;3.05;;
27025;SDS011;14565;48.626;8.978;2023-08-01T03:19:19;4.88;;;3.10;;
27025;SDS011;14565;48.626;8.978;2023-08-01T03:21:44;8.20;;;3.33;;
27025;SDS011;14565;48.626;8.978;2023-08-01T03:24:10;5.75;;;3.30;;
27025;SDS011;14565;48.626;8.978;2023-08-01T03:26:36;5.38;;;3.40;;
27025;SDS011;14565;48.626;8.978;2023-08-01T03:29:01;5.53;;;3.13;;
27025;SDS011;14565;48.626;8.978;2023-08-01T03:31:27;6.13;;;3.17;;
27025;SDS011;14565;48.626;8.978;2023-08-01T03:33:53;9.48;;;3.88;;
27025;SDS011;14565;48.626;8.978;2023-08-01T03:36:18;6.22;;;3.20;;
27025;SDS011;14565;48.626;8.978;2023-08-01T03:38:45;5.07;;;3.08;;
27025;SDS011;14565;48.626;8.978;2023-08-01T03:41:10;7.60;;;3.67;;
27025;SDS011;14565;48.626;8.978;2023-08-01T03:43:36;6.00;;;3.13;;
27025;SDS011;14565;48.626;8.978;2023-08-01T03:46:02;6.00;;;3.20;;
27025;SDS011;14565;48.626;8.978;2023-08-01T03:48:28;7.45;;;3.70;;
27025;SDS011;14565;48.626;8.978;2023-08-01T03:50:55;10.13;;;3.33;;
27025;SDS011;14565;48.626;8.978;2023-08-01T03:53:21;7.53;;;3.70;;
27025;SDS011;14565;48.626;8.978;2023-08-01T03:55:47;6.30;;;3.40;;
27025;SDS011;14565;48.626;8.978;2023-08-01T03:58:13;6.50;;;3.50;;
27025;SDS011;14565;48.626;8.978;2023-08-01T04:00:39;5.13;;;3.10;;
27025;SDS011;14565;48.626;8.978;2023-08-01T04:03:05;6.68;;;2.63;;
27025;SDS011;14565;48.626;8.978;2023-08-01T04:05:31;6.30;;;3.65;;
27025;SDS011;14565;48.626;8.978;2023-08-01T04:07:57;5.03;;;3.30;;
27025;SDS011;14565;48.626;8.978;2023-08-01T04:10:23;8.35;;;3.65;;
27025;SDS011;14565;48.626;8.978;2023-08-01T04:12:48;7.80;;;3.10;;
27025;SDS011;14565;48.626;8.978;2023-08-01T04:15:14;6.60;;;3.10;;
27025;SDS011;14565;48.626;8.978;2023-08-01T04:17:40;6.40;;;3.10;;
27025;SDS011;14565;48.626;8.978;2023-08-01T04:20:06;9.07;;;3.55;;
27025;SDS011;14565;48.626;8.978;2023-08-01T04:22:32;8.52;;;3.25;;
27025;SDS011;14565;48.626;8.978;2023-08-01T04:24:57;4.82;;;3.20;;
27025;SDS011;14565;48.626;8.978;2023-08-01T04:27:23;4.63;;;2.75;;
27025;SDS011;14565;48.626;8.978;2023-08-01T04:29:49;6.55;;;3.70;;
27025;SDS011;14565;48.626;8.978;2023-08-01T04:32:14;6.03;;;3.30;;
27025;SDS011;14565;48.626;8.978;2023-08-01T04:34:41;7.28;;;3.40;;
27025;SDS011;14565;48.626;8.978;2023-08-01T04:37:07;8.07;;;3.45;;
27025;SDS011;14565;48.626;8.978;2023-08-01T04:39:33;8.93;;;3.53;;
27025;SDS011;14565;48.626;8.978;2023-08-01T04:41:58;7.75;;;3.78;;
27025;SDS011;14565;48.626;8.978;2023-08-01T04:44:24;8.15;;;3.42;;
27025;SDS011;14565;48.626;8.978;2023-08-01T04:46:50;7.82;;;3.50;;
27025;SDS011;14565;48.626;8.978;2023-08-01T04:49:15;6.63;;;3.55;;
27025;SDS011;14565;48.626;8.978;2023-08-01T04:51:41;7.40;;;3.08;;
27025;SDS011;14565;48.626;8.978;2023-08-01T04:54:07;6.43;;;3.78;;
27025;SDS011;14565;48.626;8.978;2023-08-01T04:56:32;6.82;;;3.67;;
27025;SDS011;14565;48.626;8.978;2023-08-01T04:58:58;7.20;;;3.75;;
27025;SDS011;14565;48.626;8.978;2023-08-01T05:01:23;6.63;;;3.55;;
27025;SDS011;14565;48.626;8.978;2023-08-01T05:03:49;10.68;;;4.18;;
27025;SDS011;14565;48.626;8.978;2023-08-01T05:06:15;8.02;;;3.45;;
27025;SDS011;14565;48.626;8.978;2023-08-01T05:08:40;7.00;;;3.35;;
27025;SDS011;14565;48.626;8.978;2023-08-01T05:11:06;8.48;;;3.35;;
27025;SDS011;14565;48.626;8.978;2023-08-01T05:13:31;8.90;;;3.95;;
27025;SDS011;14565;48.626;8.978;2023-08-01T05:15:57;7.00;;;3.95;;
27025;SDS011;14565;48.626;8.978;2023-08-01T05:18:23;11.68;;;4.00;;
27025;SDS011;14565;48.626;8.978;2023-08-01T05:20:49;8.23;;;3.63;;
27025;SDS011;14565;48.626;8.978;2023-08-01T05:23:14;7.35;;;3.90;;
27025;SDS011;14565;48.626;8.978;2023-08-01T05:25:40;6.38;;;3.90;;
27025;SDS011;14565;48.626;8.978;2023-08-01T05:28:06;8.63;;;4.00;;
27025;SDS011;14565;48.626;8.978;2023-08-01T05:30:31;6.97;;;3.47;;
27025;SDS011;14565;48.626;8.978;2023-08-01T05:32:57;5.95;;;3.67;;
27025;SDS011;14565;48.626;8.978;2023-08-01T05:35:23;8.15;;;3.63;;
27025;SDS011;14565;48.626;8.978;2023-08-01T05:37:48;10.32;;;3.88;;
27025;SDS011;14565;48.626;8.978;2023-08-01T05:40:14;8.40;;;3.72;;
27025;SDS011;14565;48.626;8.978;2023-08-01T05:42:40;7.28;;;3.53;;
27025;SDS011;14565;48.626;8.978;2023-08-01T05:45:05;8.60;;;3.63;;
27025;SDS011;14565;48.626;8.978;2023-08-01T05:47:31;6.38;;;3.78;;
27025;SDS011;14565;48.626;8.978;2023-08-01T05:49:57;7.65;;;4.00;;
27025;SDS011;14565;48.626;8.978;2023-08-01T05:52:23;7.95;;;3.60;;
27025;SDS011;14565;48.626;8.978;2023-08-01T05:54:49;11.32;;;4.22;;
27025;SDS011;14565;48.626;8.978;2023-08-01T05:57:15;5.32;;;3.33;;
27025;SDS011;14565;48.626;8.978;2023-08-01T05:59:40;7.10;;;3.55;;
27025;SDS011;14565;48.626;8.978;2023-08-01T06:02:06;9.45;;;3.70;;
27025;SDS011;14565;48.626;8.978;2023-08-01T06:04:32;7.93;;;3.78;;
27025;SDS011;14565;48.626;8.978;2023-08-01T06:06:57;6.63;;;3.17;;
27025;SDS011;14565;48.626;8.978;2023-08-01T06:09:24;6.97;;;3.40;;
27025;SDS011;14565;48.626;8.978;2023-08-01T06:11:50;9.35;;;3.22;;
27025;SDS011;14565;48.626;8.978;2023-08-01T06:14:16;6.50;;;2.90;;
27025;SDS011;14565;48.626;8.978;2023-08-01T06:16:42;10.70;;;3.35;;
27025;SDS011;14565;48.626;8.978;2023-08-01T06:19:07;7.18;;;3.08;;
27025;SDS011;14565;48.626;8.978;2023-08-01T06:21:33;6.30;;;3.40;;
27025;SDS011;14565;48.626;8.978;2023-08-01T06:23:59;8.90;;;3.63;;
27025;SDS011;14565;48.626;8.978;2023-08-01T06:26:24;5.70;;;3.03;;
27025;SDS011;14565;48.626;8.978;2023-08-01T06:28:50;6.10;;;3.53;;
27025;SDS011;14565;48.626;8.978;2023-08-01T06:31:18;5.90;;;3.50;;
27025;SDS011;14565;48.626;8.978;2023-08-01T06:33:44;6.65;;;3.20;;
27025;SDS011;14565;48.626;8.978;2023-08-01T06:36:13;5.75;;;3.45;;
27025;SDS011;14565;48.626;8.978;2023-08-01T06:38:39;6.38;;;3.17;;
27025;SDS011;14565;48.626;8.978;2023-08-01T06:41:04;6.88;;;3.80;;
27025;SDS011;14565;48.626;8.978;2023-08-01T06:43:31;7.38;;;3.55;;
27025;SDS011;14565;48.626;8.978;2023-08-01T06:45:56;8.20;;;3.85;;
27025;SDS011;14565;48.626;8.978;2023-08-01T06:48:22;7.53;;;3.95;;
27025;SDS011;14565;48.626;8.978;2023-08-01T06:50:48;6.65;;;4.00;;
27025;SDS011;14565;48.626;8.978;2023-08-01T06:53:14;5.20;;;3.90;;
27025;SDS011;14565;48.626;8.978;2023-08-01T06:55:40;10.43;;;4.10;;
27025;SDS011;14565;48.626;8.978;2023-08-01T06:58:06;6.32;;;3.50;;
27025;SDS011;14565;48.626;8.978;2023-08-01T07:00:31;6.57;;;3.53;;
27025;SDS011;14565;48.626;8.978;2023-08-01T07:02:58;5.72;;;3.63;;
27025;SDS011;14565;48.626;8.978;2023-08-01T07:05:24;6.38;;;4.18;;
27025;SDS011;14565;48.626;8.978;2023-08-01T07:07:49;9.05;;;3.90;;
27025;SDS011;14565;48.626;8.978;2023-08-01T07:10:16;6.68;;;4.22;;
27025;SDS011;14565;48.626;8.978;2023-08-01T07:12:41;6.18;;;4.28;;
27025;SDS011;14565;48.626;8.978;2023-08-01T07:15:07;8.35;;;4.80;;
27025;SDS011;14565;48.626;8.978;2023-08-01T07:17:34;7.67;;;5.07;;
27025;SDS011;14565;48.626;8.978;2023-08-01T07:20:00;8.80;;;4.80;;
27025;SDS011;14565;48.626;8.978;2023-08-01T07:22:25;8.05;;;4.85;;
27025;SDS011;14565;48.626;8.978;2023-08-01T07:24:54;7.03;;;4.70;;
27025;SDS011;14565;48.626;8.978;2023-08-01T07:27:20;8.55;;;3.95;;
27025;SDS011;14565;48.626;8.978;2023-08-01T07:29:46;5.80;;;3.72;;
27025;SDS011;14565;48.626;8.978;2023-08-01T07:32:12;6.82;;;3.40;;
27025;SDS011;14565;48.626;8.978;2023-08-01T07:34:38;7.97;;;2.88;;
27025;SDS011;14565;48.626;8.978;2023-08-01T07:37:03;6.47;;;3.13;;
27025;SDS011;14565;48.626;8.978;2023-08-01T07:39:30;6.82;;;2.95;;
27025;SDS011;14565;48.626;8.978;2023-08-01T07:41:59;6.35;;;3.10;;
27025;SDS011;14565;48.626;8.978;2023-08-01T07:44:25;9.02;;;3.42;;
27025;SDS011;14565;48.626;8.978;2023-08-01T07:46:51;7.15;;;3.33;;
27025;SDS011;14565;48.626;8.978;2023-08-01T07:49:17;3.85;;;2.70;;
27025;SDS011;14565;48.626;8.978;2023-08-01T07:51:43;6.65;;;2.92;;
27025;SDS011;14565;48.626;8.978;2023-08-01T07:54:09;9.73;;;3.72;;
27025;SDS011;14565;48.626;8.978;2023-08-01T07:56:35;6.13;;;3.20;;
27025;SDS011;14565;48.626;8.978;2023-08-01T07:59:01;10.73;;;3.58;;
27025;SDS011;14565;48.626;8.978;2023-08-01T08:01:26;14.90;;;3.95;;
27025;SDS011;14565;48.626;8.978;2023-08-01T08:03:52;16.70;;;10.68;;
27025;SDS011;14565;48.626;8.978;2023-08-01T08:06:18;14.40;;;4.32;;
27025;SDS011;14565;48.626;8.978;2023-08-01T08:11:12;9.60;;;4.38;;
27025;SDS011;14565;48.626;8.978;2023-08-01T08:13:37;7.03;;;5.10;;
27025;SDS011;14565;48.626;8.978;2023-08-01T08:16:04;6.15;;;4.10;;
27025;SDS011;14565;48.626;8.978;2023-08-01T08:18:30;8.88;;;5.00;;
27025;SDS011;14565;48.626;8.978;2023-08-01T08:20:56;11.50;;;4.68;;
27025;SDS011;14565;48.626;8.978;2023-08-01T08:23:23;6.80;;;4.38;;
27025;SDS011;14565;48.626;8.978;2023-08-01T08:25:49;7.75;;;4.57;;
27025;SDS011;14565;48.626;8.978;2023-08-01T08:28:16;5.75;;;3.92;;
27025;SDS011;14565;48.626;8.978;2023-08-01T08:30:52;7.32;;;4.10;;
27025;SDS011;14565;48.626;8.978;2023-08-01T08:33:21;6.60;;;4.07;;
27025;SDS011;14565;48.626;8.978;2023-08-01T08:35:50;7.20;;;3.90;;
27025;SDS011;14565;48.626;8.978;2023-08-01T08:38:16;5.35;;;3.95;;
27025;SDS011;14565;48.626;8.978;2023-08-01T08:40:47;7.13;;;3.97;;
27025;SDS011;14565;48.626;8.978;2023-08-01T08:43:26;4.93;;;3.10;;
27025;SDS011;14565;48.626;8.978;2023-08-01T08:45:53;6.25;;;3.38;;
27025;SDS011;14565;48.626;8.978;2023-08-01T08:48:22;6.03;;;3.33;;
27025;SDS011;14565;48.626;8.978;2023-08-01T08:50:49;12.20;;;9.13;;
27025;SDS011;14565;48.626;8.978;2023-08-01T08:53:16;7.30;;;3.05;;
27025;SDS011;14565;48.626;8.978;2023-08-01T08:55:43;4.63;;;2.80;;
27025;SDS011;14565;48.626;8.978;2023-08-01T08:58:09;4.80;;;2.88;;
27025;SDS011;14565;48.626;8.978;2023-08-01T09:00:37;4.38;;;2.42;;
27025;SDS011;14565;48.626;8.978;2023-08-01T09:03:04;5.00;;;2.30;;
27025;SDS011;14565;48.626;8.978;2023-08-01T09:05:31;4.15;;;2.60;;
27025;SDS011;14565;48.626;8.978;2023-08-01T09:08:24;4.07;;;2.40;;
27025;SDS011;14565;48.626;8.978;2023-08-01T09:10:53;3.10;;;2.05;;
27025;SDS011;14565;48.626;8.978;2023-08-01T09:13:19;2.97;;;2.38;;
27025;SDS011;14565;48.626;8.978;2023-08-01T09:15:45;4.10;;;2.05;;
27025;SDS011;14565;48.626;8.978;2023-08-01T09:18:11;3.03;;;1.88;;
27025;SDS011;14565;48.626;8.978;2023-08-01T09:20:44;2.72;;;1.90;;
27025;SDS011;14565;48.626;8.978;2023-08-01T09:23:14;3.83;;;2.40;;
27025;SDS011;14565;48.626;8.978;2023-08-01T09:25:40;2.28;;;1.83;;
27025;SDS011;14565;48.626;8.978;2023-08-01T09:28:16;3.17;;;1.63;;
27025;SDS011;14565;48.626;8.978;2023-08-01T09:30:50;2.67;;;1.50;;
27025;SDS011;14565;48.626;8.978;2023-08-01T09:33:19;3.30;;;1.20;;
27025;SDS011;14565;48.626;8.978;2023-08-01T09:35:44;4.82;;;1.23;;
27025;SDS011;14565;48.626;8.978;2023-08-01T09:38:14;2.03;;;1.15;;
27025;SDS011;14565;48.626;8.978;2023-08-01T09:40:40;2.65;;;1.50;;
27025;SDS011;14565;48.626;8.978;2023-08-01T09:43:07;2.08;;;1.40;;
27025;SDS011;14565;48.626;8.978;2023-08-01T09:45:33;2.50;;;1.30;;
27025;SDS011;14565;48.626;8.978;2023-08-01T09:48:00;6.47;;;3.78;;
27025;SDS011;14565;48.626;8.978;2023-08-01T09:50:27;3.63;;;2.42;;
27025;SDS011;14565;48.626;8.978;2023-08-01T09:52:53;4.45;;;2.10;;
27025;SDS011;14565;48.626;8.978;2023-08-01T09:55:25;3.90;;;2.60;;
27025;SDS011;14565;48.626;8.978;2023-08-01T09:57:51;10.52;;;6.07;;
27025;SDS011;14565;48.626;8.978;2023-08-01T10:00:21;13.52;;;6.80;;
27025;SDS011;14565;48.626;8.978;2023-08-01T10:02:47;9.45;;;5.82;;
27025;SDS011;14565;48.626;8.978;2023-08-01T10:05:14;1.83;;;1.00;;
27025;SDS011;14565;48.626;8.978;2023-08-01T10:07:41;0.88;;;0.80;;
27025;SDS011;14565;48.626;8.978;2023-08-01T10:10:08;1.48;;;0.80;;
27025;SDS011;14565;48.626;8.978;2023-08-01T10:12:35;1.67;;;0.80;;
27025;SDS011;14565;48.626;8.978;2023-08-01T10:15:03;1.27;;;0.52;;
27025;SDS011;14565;48.626;8.978;2023-08-01T10:17:29;2.13;;;0.60;;
27025;SDS011;14565;48.626;8.978;2023-08-01T10:19:56;1.30;;;1.13;;
27025;SDS011;14565;48.626;8.978;2023-08-01T10:22:23;1.63;;;1.30;;
27025;SDS011;14565;48.626;8.978;2023-08-01T10:24:50;4.07;;;3.05;;
27025;SDS011;14565;48.626;8.978;2023-08-01T10:27:21;1.20;;;0.98;;
27025;SDS011;14565;48.626;8.978;2023-08-01T10:29:59;1.88;;;0.60;;
27025;SDS011;14565;48.626;8.978;2023-08-01T10:32:36;0.77;;;0.40;;
27025;SDS011;14565;48.626;8.978;2023-08-01T10:35:03;1.05;;;0.60;;
27025;SDS011;14565;48.626;8.978;2023-08-01T10:37:45;0.50;;;0.50;;
27025;SDS011;14565;48.626;8.978;2023-08-01T10:40:12;2.38;;;0.60;;
27025;SDS011;14565;48.626;8.978;2023-08-01T10:42:38;0.57;;;0.45;;
27025;SDS011;14565;48.626;8.978;2023-08-01T10:45:06;0.60;;;0.50;;
27025;SDS011;14565;48.626;8.978;2023-08-01T10:47:33;0.60;;;0.40;;
27025;SDS011;14565;48.626;8.978;2023-08-01T10:49:58;1.42;;;0.50;;
27025;SDS011;14565;48.626;8.978;2023-08-01T10:52:25;0.95;;;0.60;;
27025;SDS011;14565;48.626;8.978;2023-08-01T10:54:59;4.07;;;0.70;;
27025;SDS011;14565;48.626;8.978;2023-08-01T10:57:26;4.53;;;0.60;;
27025;SDS011;14565;48.626;8.978;2023-08-01T10:59:54;2.83;;;0.57;;
27025;SDS011;14565;48.626;8.978;2023-08-01T11:02:22;7.72;;;1.05;;
27025;SDS011;14565;48.626;8.978;2023-08-01T11:04:58;2.42;;;0.70;;
27025;SDS011;14565;48.626;8.978;2023-08-01T11:07:25;2.50;;;0.82;;
27025;SDS011;14565;48.626;8.978;2023-08-01T11:10:02;1.15;;;0.80;;
27025;SDS011;14565;48.626;8.978;2023-08-01T11:12:27;1.48;;;0.70;;
27025;SDS011;14565;48.626;8.978;2023-08-01T11:14:58;3.13;;;0.77;;
27025;SDS011;14565;48.626;8.978;2023-08-01T11:17:25;2.95;;;1.10;;
27025;SDS011;14565;48.626;8.978;2023-08-01T11:19:50;1.65;;;0.70;;
27025;SDS011;14565;48.626;8.978;2023-08-01T11:22:16;1.02;;;0.80;;
27025;SDS011;14565;48.626;8.978;2023-08-01T11:24:44;1.73;;;1.00;;
27025;SDS011;14565;48.626;8.978;2023-08-01T11:27:15;1.25;;;0.70;;
27025;SDS011;14565;48.626;8.978;2023-08-01T11:29:41;2.05;;;0.80;;
27025;SDS011;14565;48.626;8.978;2023-08-01T11:32:06;2.17;;;1.00;;
27025;SDS011;14565;48.626;8.978;2023-08-01T11:34:42;1.02;;;0.70;;
27025;SDS011;14565;48.626;8.978;2023-08-01T11:37:12;1.55;;;0.65;;
27025;SDS011;14565;48.626;8.978;2023-08-01T11:39:39;1.17;;;0.80;;
27025;SDS011;14565;48.626;8.978;2023-08-01T11:42:05;1.23;;;0.80;;
27025;SDS011;14565;48.626;8.978;2023-08-01T11:44:32;1.23;;;0.70;;
27025;SDS011;14565;48.626;8.978;2023-08-01T11:46:58;1.17;;;0.73;;
27025;SDS011;14565;48.626;8.978;2023-08-01T11:49:25;1.67;;;0.80;;
27025;SDS011;14565;48.626;8.978;2023-08-01T11:51:51;1.65;;;0.90;;
27025;SDS011;14565;48.626;8.978;2023-08-01T11:54:17;1.92;;;0.77;;
27025;SDS011;14565;48.626;8.978;2023-08-01T11:56:43;1.48;;;0.77;;
27025;SDS011;14565;48.626;8.978;2023-08-01T12:01:39;1.80;;;0.93;;
27025;SDS011;14565;48.626;8.978;2023-08-01T12:04:09;1.33;;;0.90;;
27025;SDS011;14565;48.626;8.978;2023-08-01T12:06:36;1.25;;;0.90;;
27025;SDS011;14565;48.626;8.978;2023-08-01T12:09:10;1.67;;;0.88;;
27025;SDS011;14565;48.626;8.978;2023-08-01T12:11:37;4.55;;;1.10;;
27025;SDS011;14565;48.626;8.978;2023-08-01T12:14:07;2.38;;;0.73;;
27025;SDS011;14565;48.626;8.978;2023-08-01T12:16:35;2.08;;;0.80;;
27025;SDS011;14565;48.626;8.978;2023-08-01T12:21:29;1.92;;;0.88;;
27025;SDS011;14565;48.626;8.978;2023-08-01T12:24:03;1.58;;;0.98;;
27025;SDS011;14565;48.626;8.978;2023-08-01T12:26:29;1.60;;;0.98;;
27025;SDS011;14565;48.626;8.978;2023-08-01T12:28:55;1.50;;;1.00;;
27025;SDS011;14565;48.626;8.978;2023-08-01T12:31:21;1.40;;;0.90;;
27025;SDS011;14565;48.626;8.978;2023-08-01T12:33:48;1.40;;;0.70;;
27025;SDS011;14565;48.626;8.978;2023-08-01T12:36:14;2.75;;;0.98;;
27025;SDS011;14565;48.626;8.978;2023-08-01T12:38:41;3.00;;;1.00;;
27025;SDS011;14565;48.626;8.978;2023-08-01T12:41:07;3.03;;;0.85;;
27025;SDS011;14565;48.626;8.978;2023-08-01T12:43:33;1.77;;;0.90;;
27025;SDS011;14565;48.626;8.978;2023-08-01T12:45:59;1.25;;;0.80;;
27025;SDS011;14565;48.626;8.978;2023-08-01T12:48:25;1.15;;;0.70;;
27025;SDS011;14565;48.626;8.978;2023-08-01T12:50:52;0.98;;;0.88;;
27025;SDS011;14565;48.626;8.978;2023-08-01T12:53:18;2.45;;;1.08;;
27025;SDS011;14565;48.626;8.978;2023-08-01T12:55:45;1.50;;;1.10;;
27025;SDS011;14565;48.626;8.978;2023-08-01T12:58:12;2.42;;;1.23;;
27025;SDS011;14565;48.626;8.978;2023-08-01T13:00:41;1.48;;;0.80;;
27025;SDS011;14565;48.626;8.978;2023-08-01T13:03:08;3.53;;;1.00;;
27025;SDS011;14565;48.626;8.978;2023-08-01T13:05:34;1.92;;;1.00;;
27025;SDS011;14565;48.626;8.978;2023-08-01T13:08:01;1.48;;;1.20;;
27025;SDS011;14565;48.626;8.978;2023-08-01T13:10:29;1.70;;;1.00;;
27025;SDS011;14565;48.626;8.978;2023-08-01T13:12:56;4.15;;;1.67;;
27025;SDS011;14565;48.626;8.978;2023-08-01T13:15:23;2.30;;;1.05;;
27025;SDS011;14565;48.626;8.978;2023-08-01T13:17:49;2.47;;;1.00;;
27025;SDS011;14565;48.626;8.978;2023-08-01T13:20:15;1.42;;;0.88;;
27025;SDS011;14565;48.626;8.978;2023-08-01T13:22:41;2.17;;;1.00;;
27025;SDS011;14565;48.626;8.978;2023-08-01T13:25:10;2.25;;;1.50;;
27025;SDS011;14565;48.626;8.978;2023-08-01T13:27:36;4.22;;;2.30;;
27025;SDS011;14565;48.626;8.978;2023-08-01T13:30:02;3.72;;;1.30;;
27025;SDS011;14565;48.626;8.978;2023-08-01T13:32:28;2.50;;;1.45;;
27025;SDS011;14565;48.626;8.978;2023-08-01T13:34:54;2.80;;;1.00;;
27025;SDS011;14565;48.626;8.978;2023-08-01T13:37:20;1.25;;;0.88;;
27025;SDS011;14565;48.626;8.978;2023-08-01T13:39:45;2.75;;;1.02;;
27025;SDS011;14565;48.626;8.978;2023-08-01T13:42:11;1.60;;;0.90;;
27025;SDS011;14565;48.626;8.978;2023-08-01T13:44:38;2.00;;;1.02;;
27025;SDS011;14565;48.626;8.978;2023-08-01T13:47:09;3.80;;;0.80;;
27025;SDS011;14565;48.626;8.978;2023-08-01T13:49:35;4.50;;;1.13;;
27025;SDS011;14565;48.626;8.978;2023-08-01T13:52:01;1.67;;;1.00;;
27025;SDS011;14565;48.626;8.978;2023-08-01T13:54:29;2.80;;;1.27;;
27025;SDS011;14565;48.626;8.978;2023-08-01T13:56:55;3.88;;;1.13;;
27025;SDS011;14565;48.626;8.978;2023-08-01T13:59:21;3.20;;;1.00;;
27025;SDS011;14565;48.626;8.978;2023-08-01T14:01:47;2.45;;;1.13;;
27025;SDS011;14565;48.626;8.978;2023-08-01T14:04:12;1.60;;;0.90;;
27025;SDS011;14565;48.626;8.978;2023-08-01T14:06:41;1.50;;;0.93;;
27025;SDS011;14565;48.626;8.978;2023-08-01T14:09:10;1.67;;;1.08;;
27025;SDS011;14565;48.626;8.978;2023-08-01T14:11:36;3.63;;;1.17;;
27025;SDS011;14565;48.626;8.978;2023-08-01T14:14:02;2.78;;;0.98;;
27025;SDS011;14565;48.626;8.978;2023-08-01T14:16:29;2.10;;;1.27;;
27025;SDS011;14565;48.626;8.978;2023-08-01T14:18:55;5.82;;;1.58;;
27025;SDS011;14565;48.626;8.978;2023-08-01T14:21:21;9.60;;;2.90;;
27025;SDS011;14565;48.626;8.978;2023-08-01T14:23:46;10.35;;;6.72;;
27025;SDS011;14565;48.626;8.978;2023-08-01T14:26:13;8.35;;;4.47;;
27025;SDS011;14565;48.626;8.978;2023-08-01T14:28:39;2.53;;;1.60;;
27025;SDS011;14565;48.626;8.978;2023-08-01T14:31:04;3.13;;;2.08;;
27025;SDS011;14565;48.626;8.978;2023-08-01T14:33:30;4.80;;;3.15;;
27025;SDS011;14565;48.626;8.978;2023-08-01T14:35:56;9.05;;;6.18;;
27025;SDS011;14565;48.626;8.978;2023-08-01T14:38:22;8.02;;;4.63;;
27025;SDS011;14565;48.626;8.978;2023-08-01T14:40:48;28.63;;;19.92;;
27025;SDS011;14565;48.626;8.978;2023-08-01T14:43:14;12.38;;;10.43;;
27025;SDS011;14565;48.626;8.978;2023-08-01T14:45:40;9.73;;;5.28;;
27025;SDS011;14565;48.626;8.978;2023-08-01T14:48:06;3.50;;;2.70;;
27025;SDS011;14565;48.626;8.978;2023-08-01T14:50:33;3.78;;;2.35;;
27025;SDS011;14565;48.626;8.978;2023-08-01T14:52:59;6.28;;;2.83;;